Athol, Kansas
Current Conditions -  °F | °C
As of 10:35 PM on Saturday 20 Dec 2014 (Local Time) from KHDE Reporting Station
Clear Clear  
Wind Chill: 27°   Ceiling: Unl
Heat Index: 33°   Visibility: 10mi
Dew Point: 30°   Wind: 6mph
Humidity: 90%   Direction: 220°SW
Pressure: 29.93"   Gusts: NA
Location:  39.77°N, 98.92°W
Report Text: KHDE 210435Z AUTO 22005KT 10SM CLR 01/M01 A2993 RMK AO2 T00051010
Loading
Personal Weather Stations






























Interactive Weather Map New forecast layout! Learn more

10-Day Weather Forecast

Advertisements
Track Severe Weather on mobile